ZLG weather

CLOSED La Güera Airport
La Güera, Western Sahara

Public forecast

Using degrees Celsius for public forecast. Weather courtesy of forecast.io.

Closest aviation weather report (METAR) to La Güera Airport

Closest report is Nouadhibou International Airport, 6.3 nm (11.7 km) NNE. Retrieved 2020/08/06 16:00 UTC (23 minutes ago):

GQPP 061600Z 34014KT 310V010 CAVOK 24/18 Q1014 NOSIG

Closest aviation forecast (TAF) to La Güera Airport

Closest forecast is Nouadhibou International Airport, 6.3 nm (11.7 km) NNE. Retrieved 2020/08/06 12:56 UTC (3 hours ago):

TAF GQPP 061100Z 0612/0712 34015KT 7000 FEW006 PROB30 TEMPO 0614/0620 3000 DRSA